SUI796 LIPL-LSGK
Flight info
| Callsign | SUI796 |
|---|---|
| Flight time | N/A |
| Altitude | 19000 |
| Route | OSKOR L615 PEXUG/N0306F180 L615 BANKO L50 VALOR |
| Aircraft | B350/L-SBGRW/S |
Departure
| Time | N/A |
|---|---|
| Airport | Ghedi Air Base (LIPL) |
Arrival
| Time | 2026-05-07 19:46 |
|---|---|
| Airport | Saanen Airfield (LSGK) |
| Time | Latitude | Longitude | Altitude | Speed | Heading |
|---|---|---|---|---|---|
| 2026-05-07 19:21 | 45.72904 | 8.12866 | 18009 ft | 283 kts | 277° |
| 2026-05-07 19:21 | 45.73151 | 8.10084 | 18017 ft | 281 kts | 277° |
| 2026-05-07 19:22 | 45.73662 | 8.04399 | 18010 ft | 282 kts | 276° |
| 2026-05-07 19:22 | 45.73908 | 8.01608 | 18021 ft | 283 kts | 276° |
| 2026-05-07 19:22 | 45.74156 | 7.98806 | 18021 ft | 284 kts | 276° |
| 2026-05-07 19:23 | 45.74402 | 7.96004 | 18017 ft | 284 kts | 277° |
| 2026-05-07 19:23 | 45.74654 | 7.93194 | 18016 ft | 285 kts | 277° |
| 2026-05-07 19:23 | 45.74899 | 7.90377 | 18016 ft | 285 kts | 276° |
| 2026-05-07 19:23 | 45.75145 | 7.87563 | 18016 ft | 285 kts | 276° |
| 2026-05-07 19:24 | 45.75389 | 7.84747 | 18026 ft | 285 kts | 276° |
| 2026-05-07 19:24 | 45.75635 | 7.81926 | 18022 ft | 285 kts | 277° |
| 2026-05-07 19:24 | 45.75878 | 7.79118 | 18024 ft | 284 kts | 277° |
| 2026-05-07 19:24 | 45.76121 | 7.76309 | 18022 ft | 284 kts | 277° |
| 2026-05-07 19:25 | 45.76364 | 7.73503 | 18025 ft | 284 kts | 277° |
| 2026-05-07 19:25 | 45.76603 | 7.70698 | 18018 ft | 284 kts | 277° |
| 2026-05-07 19:25 | 45.76842 | 7.67900 | 18025 ft | 283 kts | 276° |
| 2026-05-07 19:25 | 45.77079 | 7.65141 | 18024 ft | 283 kts | 277° |
| 2026-05-07 19:26 | 45.77323 | 7.62302 | 18024 ft | 283 kts | 276° |
| 2026-05-07 19:26 | 45.77556 | 7.59540 | 18024 ft | 284 kts | 276° |
| 2026-05-07 19:26 | 45.77796 | 7.56738 | 18023 ft | 283 kts | 277° |
| 2026-05-07 19:26 | 45.78033 | 7.53933 | 18019 ft | 283 kts | 276° |
| 2026-05-07 19:27 | 45.78262 | 7.51135 | 18018 ft | 283 kts | 276° |
| 2026-05-07 19:27 | 45.78499 | 7.48339 | 17960 ft | 283 kts | 276° |
| 2026-05-07 19:27 | 45.78736 | 7.45554 | 17955 ft | 279 kts | 276° |
| 2026-05-07 19:27 | 45.78966 | 7.42805 | 17975 ft | 279 kts | 276° |
| 2026-05-07 19:28 | 45.79188 | 7.40040 | 17972 ft | 280 kts | 276° |
| 2026-05-07 19:28 | 45.79419 | 7.37273 | 17969 ft | 279 kts | 276° |
| 2026-05-07 19:28 | 45.79650 | 7.34501 | 17973 ft | 281 kts | 276° |
| 2026-05-07 19:28 | 45.79880 | 7.31716 | 17974 ft | 282 kts | 276° |
| 2026-05-07 19:29 | 45.80108 | 7.28914 | 17973 ft | 283 kts | 276° |
| 2026-05-07 19:29 | 45.80338 | 7.26113 | 17971 ft | 283 kts | 276° |
| 2026-05-07 19:29 | 45.80568 | 7.23319 | 17966 ft | 281 kts | 276° |
| 2026-05-07 19:29 | 45.80793 | 7.20530 | 17980 ft | 282 kts | 276° |
| 2026-05-07 19:30 | 45.81017 | 7.17744 | 17979 ft | 281 kts | 276° |
| 2026-05-07 19:30 | 45.81245 | 7.14962 | 17981 ft | 280 kts | 276° |
| 2026-05-07 19:30 | 45.81467 | 7.12188 | 17984 ft | 281 kts | 276° |
| 2026-05-07 19:30 | 45.81747 | 7.09472 | 17994 ft | 278 kts | 284° |
| 2026-05-07 19:31 | 45.82592 | 7.06972 | 18006 ft | 281 kts | 305° |
| 2026-05-07 19:31 | 45.84047 | 7.05061 | 17998 ft | 289 kts | 326° |
| 2026-05-07 19:31 | 45.85928 | 7.03965 | 18003 ft | 296 kts | 343° |
| 2026-05-07 19:31 | 45.87954 | 7.03398 | 18003 ft | 296 kts | 347° |
| 2026-05-07 19:32 | 45.89984 | 7.02845 | 18000 ft | 296 kts | 344° |
| 2026-05-07 19:32 | 45.91982 | 7.02142 | 18005 ft | 295 kts | 342° |
| 2026-05-07 19:32 | 45.93970 | 7.01412 | 18007 ft | 294 kts | 342° |
| 2026-05-07 19:32 | 45.95969 | 7.00754 | 18018 ft | 295 kts | 345° |
| 2026-05-07 19:33 | 45.97977 | 7.00122 | 18016 ft | 296 kts | 343° |
| 2026-05-07 19:33 | 45.99982 | 6.99430 | 18017 ft | 297 kts | 343° |
| 2026-05-07 19:33 | 46.01839 | 6.98783 | 18013 ft | 297 kts | 343° |
| 2026-05-07 19:33 | 46.03880 | 6.98093 | 18006 ft | 297 kts | 343° |
| 2026-05-07 19:34 | 46.05945 | 6.97636 | 17605 ft | 306 kts | 355° |
| 2026-05-07 19:34 | 46.08065 | 6.98019 | 17032 ft | 317 kts | 14° |
| 2026-05-07 19:34 | 46.10098 | 6.99335 | 16509 ft | 321 kts | 26° |
| 2026-05-07 19:34 | 46.11993 | 7.00946 | 16379 ft | 311 kts | 31° |
| 2026-05-07 19:35 | 46.13762 | 7.02641 | 16229 ft | 302 kts | 30° |
| 2026-05-07 19:35 | 46.15555 | 7.04266 | 15549 ft | 311 kts | 28° |
| 2026-05-07 19:35 | 46.17478 | 7.05673 | 15253 ft | 308 kts | 22° |
| 2026-05-07 19:35 | 46.19441 | 7.06910 | 14933 ft | 305 kts | 21° |
| 2026-05-07 19:36 | 46.21387 | 7.08014 | 14512 ft | 298 kts | 17° |
| 2026-05-07 19:36 | 46.23310 | 7.09078 | 14102 ft | 294 kts | 21° |
| 2026-05-07 19:36 | 46.25154 | 7.10386 | 13438 ft | 297 kts | 26° |
| 2026-05-07 19:36 | 46.26966 | 7.11761 | 13028 ft | 293 kts | 26° |
| 2026-05-07 19:37 | 46.28762 | 7.13135 | 12645 ft | 288 kts | 25° |
| 2026-05-07 19:37 | 46.30600 | 7.14216 | 12219 ft | 285 kts | 15° |
| 2026-05-07 19:37 | 46.32529 | 7.14730 | 11868 ft | 278 kts | 360° |
| 2026-05-07 19:37 | 46.34440 | 7.14605 | 11617 ft | 269 kts | 353° |
| 2026-05-07 19:38 | 46.36281 | 7.14369 | 11438 ft | 264 kts | 353° |
| 2026-05-07 19:38 | 46.38138 | 7.14352 | 11023 ft | 271 kts | 6° |
| 2026-05-07 19:38 | 46.39960 | 7.14874 | 10685 ft | 271 kts | 12° |
| 2026-05-07 19:38 | 46.41787 | 7.15524 | 10435 ft | 267 kts | 13° |
| 2026-05-07 19:39 | 46.43589 | 7.16140 | 10090 ft | 262 kts | 12° |
| 2026-05-07 19:39 | 46.45333 | 7.16719 | 9731 ft | 254 kts | 10° |
| 2026-05-07 19:39 | 46.47078 | 7.16993 | 9250 ft | 251 kts | 356° |
| 2026-05-07 19:39 | 46.48715 | 7.16242 | 8683 ft | 248 kts | 322° |
| 2026-05-07 19:40 | 46.49699 | 7.14309 | 8300 ft | 237 kts | 287° |
| 2026-05-07 19:40 | 46.49730 | 7.11988 | 7896 ft | 232 kts | 251° |
| 2026-05-07 19:40 | 46.48792 | 7.10152 | 7485 ft | 227 kts | 215° |
| 2026-05-07 19:40 | 46.47332 | 7.09454 | 7185 ft | 222 kts | 178° |
| 2026-05-07 19:41 | 46.45957 | 7.10224 | 7044 ft | 211 kts | 137° |
| 2026-05-07 19:41 | 46.45313 | 7.12079 | 6770 ft | 210 kts | 93° |
| 2026-05-07 19:41 | 46.45677 | 7.14102 | 6263 ft | 218 kts | 58° |
| 2026-05-07 19:41 | 46.46612 | 7.15896 | 5749 ft | 223 kts | 51° |
| 2026-05-07 19:42 | 46.47581 | 7.17626 | 5507 ft | 214 kts | 57° |
| 2026-05-07 19:42 | 46.48094 | 7.19537 | 5461 ft | 199 kts | 83° |
| 2026-05-07 19:42 | 46.48162 | 7.21536 | 5269 ft | 195 kts | 87° |
| 2026-05-07 19:42 | 46.48232 | 7.23458 | 5121 ft | 191 kts | 87° |
| 2026-05-07 19:43 | 46.48188 | 7.25329 | 5126 ft | 178 kts | 106° |
| 2026-05-07 19:43 | 46.47711 | 7.26873 | 5090 ft | 163 kts | 124° |
| 2026-05-07 19:43 | 46.46902 | 7.27998 | 5064 ft | 166 kts | 149° |
| 2026-05-07 19:43 | 46.45977 | 7.28883 | 5096 ft | 148 kts | 133° |
| 2026-05-07 19:44 | 46.45760 | 7.30227 | 4977 ft | 140 kts | 67° |
| 2026-05-07 19:44 | 46.46485 | 7.30942 | 4962 ft | 131 kts | 352° |
| 2026-05-07 19:44 | 46.47240 | 7.30201 | 4748 ft | 139 kts | 314° |
| 2026-05-07 19:44 | 46.47914 | 7.29154 | 4486 ft | 145 kts | 313° |
| 2026-05-07 19:45 | 46.48603 | 7.28077 | 4023 ft | 142 kts | 313° |
| 2026-05-07 19:45 | 46.48917 | 7.26855 | 3659 ft | 125 kts | 263° |
| 2026-05-07 19:45 | 46.48758 | 7.25645 | 3402 ft | 120 kts | 259° |
| 2026-05-07 19:45 | 46.48618 | 7.24608 | 3320 ft | 58 kts | 257° |
| 2026-05-07 19:46 | 46.48584 | 7.24388 | 3320 ft | 7 kts | 257° |
| 2026-05-07 19:46 | 46.48585 | 7.24335 | 3318 ft | 0 kts | 277° |
| 2026-05-07 19:46 | 46.48585 | 7.24334 | 3318 ft | 1 kts | 284° |
| 2026-05-07 19:46 | 46.48599 | 7.24394 | 3317 ft | 17 kts | 84° |
| 2026-05-07 19:47 | 46.48617 | 7.24570 | 3321 ft | 12 kts | 80° |
| 2026-05-07 19:47 | 46.48659 | 7.24603 | 3322 ft | 5 kts | 16° |
| 2026-05-07 19:47 | 46.48691 | 7.24648 | 3324 ft | 7 kts | 67° |
| 2026-05-07 19:47 | 46.48695 | 7.24705 | 3326 ft | 3 kts | 147° |
| 2026-05-07 19:48 | 46.48692 | 7.24707 | 3324 ft | 0 kts | 168° |